Time;durP1;ratioP1;P1;durP2;ratioP2;P2;SDS_P1;SDS_P2;PMS_P1;PMS_P2;Temp;Humidity;BMP_temperature;BMP_pressure;BME280_temperature;BME280_humidity;BME280_pressure;Samples;Min_cycle;Max_cycle;Signal;HPM_P1;HPM_P2
2023/01/02 00:00:20;;;;;;;6.87;2.90;;;;;;;11.76;91.60;100595.28;5052942;28;20208;-83
2023/01/02 00:02:46;;;;;;;5.03;2.53;;;;;;;11.79;91.77;100600.41;5052000;28;20218;-82
2023/01/02 00:05:13;;;;;;;3.93;2.43;;;;;;;11.83;91.09;100597.38;5053806;28;20220;-84
2023/01/02 00:07:39;;;;;;;5.13;2.63;;;;;;;11.86;91.00;100588.31;5056501;28;20220;-84
2023/01/02 00:10:06;;;;;;;7.73;3.07;;;;;;;11.89;90.70;100584.59;5042657;28;20230;-82
2023/01/02 00:12:34;;;;;;;5.60;2.50;;;;;;;11.92;90.80;100577.22;5051368;28;20211;-82
2023/01/02 00:15:01;;;;;;;4.50;2.70;;;;;;;11.93;90.76;100573.59;5051166;28;20205;-82
2023/01/02 00:17:28;;;;;;;6.80;2.60;;;;;;;11.93;90.50;100557.59;5053680;28;20231;-83
2023/01/02 00:19:55;;;;;;;6.00;3.33;;;;;;;11.94;89.91;100555.78;5054070;28;20197;-82
2023/01/02 00:22:22;;;;;;;4.17;2.37;;;;;;;11.97;89.89;100548.41;5053616;28;20617;-82
2023/01/02 00:24:48;;;;;;;6.23;2.90;;;;;;;11.99;89.83;100540.31;5054151;28;20207;-82
2023/01/02 00:27:15;;;;;;;5.00;2.70;;;;;;;12.00;89.37;100544.69;5054679;28;20238;-82
2023/01/02 00:29:43;;;;;;;5.47;2.70;;;;;;;12.00;89.62;100539.34;5056636;28;20225;-82
2023/01/02 00:32:09;;;;;;;5.60;2.97;;;;;;;12.02;89.34;100534.72;5054469;28;20210;-84
2023/01/02 00:34:36;;;;;;;8.33;2.77;;;;;;;12.03;89.01;100523.94;5053883;28;20580;-82
2023/01/02 00:37:02;;;;;;;5.17;3.00;;;;;;;12.04;88.56;100503.44;5053040;28;20272;-84
2023/01/02 00:39:29;;;;;;;4.47;2.73;;;;;;;12.06;88.41;100505.03;5053697;28;20656;-83
2023/01/02 00:41:55;;;;;;;4.97;2.50;;;;;;;12.09;88.24;100495.97;5052290;28;20568;-83
2023/01/02 00:44:22;;;;;;;7.07;2.50;;;;;;;12.09;87.99;100485.28;5053053;28;20214;-85
2023/01/02 00:46:49;;;;;;;6.27;2.50;;;;;;;12.10;87.63;100476.31;5044314;28;20229;-83
2023/01/02 00:49:16;;;;;;;8.90;3.00;;;;;;;12.10;87.44;100492.31;5049040;28;20233;-86
2023/01/02 00:51:42;;;;;;;5.83;2.70;;;;;;;12.10;87.12;100505.66;5052995;28;20207;-83
2023/01/02 00:54:09;;;;;;;6.73;2.63;;;;;;;12.09;87.08;100496.81;5049963;28;20210;-84
2023/01/02 00:56:35;;;;;;;7.00;3.07;;;;;;;12.12;86.72;100496.59;5054969;28;20220;-84
2023/01/02 00:59:02;;;;;;;4.23;2.50;;;;;;;12.14;86.10;100493.81;5052114;28;20225;-83
2023/01/02 01:01:29;;;;;;;5.10;2.40;;;;;;;12.15;85.78;100493.72;5058472;28;20226;-83
2023/01/02 01:04:00;;;;;;;3.87;2.17;;;;;;;12.21;85.25;100488.88;5051342;28;20206;-83
2023/01/02 01:06:26;;;;;;;6.47;3.00;;;;;;;12.22;84.72;100482.56;5050344;28;20237;-84
2023/01/02 01:08:53;;;;;;;6.57;2.70;;;;;;;12.22;84.54;100466.53;5053789;28;20209;-82
2023/01/02 01:11:19;;;;;;;7.70;2.47;;;;;;;12.23;83.73;100457.56;5051411;28;20292;-83
2023/01/02 01:13:46;;;;;;;4.43;2.50;;;;;;;12.26;83.22;100447.53;5053345;28;20221;-83
2023/01/02 01:16:15;;;;;;;4.77;2.57;;;;;;;12.27;83.16;100449.22;5058498;28;20240;-83
2023/01/02 01:18:43;;;;;;;4.67;2.47;;;;;;;12.27;82.59;100454.56;5057812;28;20201;-83
2023/01/02 01:21:13;;;;;;;6.43;2.63;;;;;;;12.27;82.22;100459.91;5059880;28;20225;-84
2023/01/02 01:23:39;;;;;;;4.60;2.33;;;;;;;12.26;81.99;100447.53;5058086;28;20212;-84
2023/01/02 01:26:08;;;;;;;4.20;2.13;;;;;;;12.27;81.69;100443.91;5054826;28;20590;-83
2023/01/02 01:28:35;;;;;;;6.07;2.73;;;;;;;12.26;81.13;100439.50;5059796;28;20209;-84
2023/01/02 01:31:03;;;;;;;6.60;2.50;;;;;;;12.26;80.76;100439.50;5054367;28;20237;-85
2023/01/02 01:33:30;;;;;;;5.57;2.67;;;;;;;12.26;80.74;100439.50;5056311;28;20202;-84
2023/01/02 01:36:00;;;;;;;4.03;2.20;;;;;;;12.28;80.23;100439.41;5055114;28;20198;-85
2023/01/02 01:38:28;;;;;;;7.60;2.60;;;;;;;12.27;80.24;100443.91;5059037;28;20203;-86
2023/01/02 01:40:55;;;;;;;6.87;3.17;;;;;;;12.30;79.72;100449.00;5058363;28;20239;-84
2023/01/02 01:43:35;;;;;;;6.57;2.77;;;;;;;12.32;79.78;100443.56;5054054;28;20220;-86
2023/01/02 01:46:02;;;;;;;7.87;3.37;;;;;;;12.36;78.96;100450.38;5063746;28;20209;-84
2023/01/02 01:48:30;;;;;;;7.23;2.77;;;;;;;12.35;78.82;100446.88;5059765;28;20235;-85
2023/01/02 01:50:57;;;;;;;7.50;3.10;;;;;;;12.39;78.86;100448.31;5056707;28;20587;-85
2023/01/02 01:53:24;;;;;;;13.33;5.20;;;;;;;12.41;78.72;100446.38;5058631;28;20202;-85
2023/01/02 01:55:55;;;;;;;10.80;5.27;;;;;;;12.43;78.60;100452.47;5056669;28;20233;-85
2023/01/02 01:58:26;;;;;;;13.83;6.83;;;;;;;12.47;78.21;100459.31;5056825;28;20752;-87
2023/01/02 02:00:53;;;;;;;7.07;4.17;;;;;;;12.49;77.69;100456.50;5060042;28;20198;-83
2023/01/02 02:03:24;;;;;;;8.60;3.00;;;;;;;12.51;77.55;100458.13;5057685;28;20224;-82
2023/01/02 02:05:51;;;;;;;4.27;2.27;;;;;;;12.51;77.29;100463.44;5059908;28;20236;-83
2023/01/02 02:08:24;;;;;;;4.60;2.13;;;;;;;12.53;77.19;100458.00;5060189;28;20236;-83
2023/01/02 02:10:53;;;;;;;5.07;2.27;;;;;;;12.56;77.01;100454.22;5058248;28;20212;-84
2023/01/02 02:13:19;;;;;;;3.30;1.93;;;;;;;12.56;76.59;100444.38;5058186;28;20209;-84
2023/01/02 02:16:07;;;;;;;5.57;2.17;;;;;;;12.58;76.78;100441.59;5056807;28;20220;-83
2023/01/02 02:18:49;;;;;;;6.70;2.07;;;;;;;12.59;76.62;100448.66;5058122;28;20886;-82
2023/01/02 02:21:32;;;;;;;4.23;2.40;;;;;;;12.58;76.29;100441.59;5057395;28;20627;-84
2023/01/02 02:24:36;;;;;;;6.77;2.30;;;;;;;12.59;76.41;100440.63;5054623;28;20237;-85
2023/01/02 02:27:29;;;;;;;6.40;2.33;;;;;;;12.60;76.06;100434.34;5053405;28;20230;-84
2023/01/02 02:30:10;;;;;;;4.80;2.50;;;;;;;12.61;76.12;100430.69;5056133;28;20625;-84
2023/01/02 02:33:23;;;;;;;7.03;2.50;;;;;;;12.62;75.78;100421.72;5057426;28;20225;-85
2023/01/02 02:36:03;;;;;;;5.20;2.40;;;;;;;12.62;75.83;100422.56;5012524;28;20636;-84
2023/01/02 02:38:46;;;;;;;4.83;2.40;;;;;;;12.67;75.67;100409.72;5010118;28;20582;-85
2023/01/02 02:41:20;;;;;;;5.77;2.50;;;;;;;12.70;75.30;100412.16;5041255;28;20223;-84
2023/01/02 02:43:56;;;;;;;6.07;2.10;;;;;;;12.73;75.10;100411.06;5055267;28;20201;-85
2023/01/02 02:46:32;;;;;;;8.47;2.40;;;;;;;12.77;75.38;100416.06;5055419;28;20221;-86
2023/01/02 02:49:08;;;;;;;6.27;2.30;;;;;;;12.78;75.12;100409.75;5058592;28;20201;-86
2023/01/02 02:51:39;;;;;;;7.13;2.83;;;;;;;12.81;75.13;100406.00;5056883;28;20868;-83
2023/01/02 02:54:12;;;;;;;6.37;2.40;;;;;;;12.83;74.87;100404.06;5049821;28;20664;-85
2023/01/02 02:56:40;;;;;;;6.80;2.33;;;;;;;12.83;74.87;100401.38;5052109;28;20693;-84
2023/01/02 02:59:07;;;;;;;5.50;2.20;;;;;;;12.86;74.43;100409.16;5058533;28;20209;-83
2023/01/02 03:01:36;;;;;;;6.33;2.77;;;;;;;12.89;74.39;100403.59;5056654;28;20193;-81
2023/01/02 03:04:04;;;;;;;5.63;2.63;;;;;;;12.92;74.63;100391.78;5057093;28;20772;-85
2023/01/02 03:06:45;;;;;;;4.47;2.13;;;;;;;12.96;74.54;100391.44;5059235;28;20585;-84
2023/01/02 03:09:17;;;;;;;3.70;1.80;;;;;;;13.01;74.08;100397.28;5053788;28;20204;-85
2023/01/02 03:11:51;;;;;;;5.70;2.70;;;;;;;13.09;73.83;100394.84;5054232;28;20383;-82
2023/01/02 03:14:26;;;;;;;5.20;2.30;;;;;;;13.12;73.36;100394.63;5054363;28;20576;-85
2023/01/02 03:17:01;;;;;;;5.03;1.97;;;;;;;13.18;72.87;100394.19;5054227;28;20275;-83
2023/01/02 03:19:36;;;;;;;6.60;2.40;;;;;;;13.19;72.82;100393.22;5058493;28;20212;-84
2023/01/02 03:22:08;;;;;;;6.63;2.30;;;;;;;13.25;72.30;100401.75;5052873;28;20205;-83
2023/01/02 03:24:37;;;;;;;6.40;2.40;;;;;;;13.27;72.41;100400.63;5059986;28;20696;-83
2023/01/02 03:27:09;;;;;;;3.63;2.03;;;;;;;13.32;71.78;100397.59;5056380;28;20232;-83
2023/01/02 03:29:42;;;;;;;9.30;2.20;;;;;;;13.34;72.03;100409.88;5055871;28;20206;-86
2023/01/02 03:32:17;;;;;;;7.43;2.30;;;;;;;13.36;71.73;100413.28;5056515;28;20193;-86
2023/01/02 03:34:47;;;;;;;6.00;2.40;;;;;;;13.39;71.37;100406.84;5058262;28;20203;-84
2023/01/02 03:37:18;;;;;;;4.40;2.30;;;;;;;13.41;71.80;100410.25;5058825;28;20217;-83
2023/01/02 03:39:49;;;;;;;5.00;2.13;;;;;;;13.45;71.60;100406.34;5057766;28;20197;-83
2023/01/02 03:42:22;;;;;;;4.23;2.13;;;;;;;13.44;71.65;100405.50;5053296;28;20216;-86
2023/01/02 03:44:55;;;;;;;5.40;1.90;;;;;;;13.48;71.39;100396.25;5059562;28;20201;-86
2023/01/02 03:47:30;;;;;;;6.90;2.30;;;;;;;13.54;70.78;100400.28;5052482;28;20224;-85
2023/01/02 03:50:01;;;;;;;5.53;2.10;;;;;;;13.55;70.58;100413.53;5054204;28;20212;-86
2023/01/02 03:52:27;;;;;;;4.60;2.10;;;;;;;13.55;70.55;100410.88;5049657;28;20216;-85
2023/01/02 03:54:56;;;;;;;8.40;3.30;;;;;;;13.57;70.53;100405.41;5054506;28;20212;-85
2023/01/02 03:57:33;;;;;;;5.27;2.07;;;;;;;13.59;70.34;100397.25;5052665;28;20240;-84
2023/01/02 04:00:04;;;;;;;4.50;2.03;;;;;;;13.60;70.28;100404.31;5054545;28;20201;-87
2023/01/02 04:02:37;;;;;;;7.03;2.70;;;;;;;13.61;70.00;100400.66;5053339;28;20216;-84
2023/01/02 04:05:09;;;;;;;4.40;1.67;;;;;;;13.65;69.94;100397.59;5054558;28;20667;-86
2023/01/02 04:07:43;;;;;;;4.97;2.10;;;;;;;13.68;69.98;100397.34;5052747;28;20221;-86
2023/01/02 04:10:13;;;;;;;6.93;2.20;;;;;;;13.70;69.30;100395.41;5046595;28;20599;-85
2023/01/02 04:12:42;;;;;;;9.20;2.10;;;;;;;13.72;69.07;100393.47;5052455;28;20212;-86
2023/01/02 04:15:11;;;;;;;4.57;1.87;;;;;;;13.75;69.44;100392.38;5051304;28;20253;-86
2023/01/02 04:17:45;;;;;;;8.87;2.73;;;;;;;13.75;69.13;100393.22;5044641;28;20241;-85
2023/01/02 04:20:17;;;;;;;5.87;2.30;;;;;;;13.79;68.80;100391.97;5049877;28;20197;-85
2023/01/02 04:22:49;;;;;;;6.17;2.30;;;;;;;13.79;68.90;100397.31;5050332;28;20217;-84
2023/01/02 04:25:18;;;;;;;4.70;2.20;;;;;;;13.80;68.99;100392.81;5047724;28;20221;-83
2023/01/02 04:27:50;;;;;;;8.80;2.50;;;;;;;13.80;68.41;100391.00;5049879;28;20225;-83
2023/01/02 04:30:17;;;;;;;5.93;2.23;;;;;;;13.81;68.51;100398.06;5049716;28;20221;-84
2023/01/02 04:32:47;;;;;;;5.77;2.43;;;;;;;13.82;68.66;100391.72;5053432;28;20225;-84
2023/01/02 04:35:16;;;;;;;5.60;2.20;;;;;;;13.83;68.52;100396.13;5053897;28;20205;-83
2023/01/02 04:37:43;;;;;;;3.00;1.90;;;;;;;13.86;67.97;100392.34;5051828;28;20234;-84
2023/01/02 04:40:15;;;;;;;6.07;2.17;;;;;;;13.86;68.08;100395.88;5053289;28;20206;-85
2023/01/02 04:42:42;;;;;;;4.20;1.80;;;;;;;13.90;67.76;100407.19;5052533;28;20659;-84
2023/01/02 04:45:09;;;;;;;5.93;2.40;;;;;;;13.94;67.61;100403.28;5047544;28;20198;-85
2023/01/02 04:47:36;;;;;;;5.53;2.20;;;;;;;13.96;67.71;100404.03;5046641;28;20217;-83
2023/01/02 04:50:04;;;;;;;6.27;1.87;;;;;;;13.97;67.34;100408.41;5056983;28;20544;-84
2023/01/02 04:52:31;;;;;;;3.37;1.80;;;;;;;13.98;67.58;100409.22;5057413;28;20220;-84
2023/01/02 04:54:58;;;;;;;4.90;2.37;;;;;;;13.97;67.57;100412.91;5055141;28;20213;-85
2023/01/02 04:57:24;;;;;;;4.67;2.00;;;;;;;13.97;67.22;100416.44;5052502;28;20676;-84
2023/01/02 04:59:51;;;;;;;5.10;2.20;;;;;;;13.98;67.26;100420.78;5063079;28;20569;-84
2023/01/02 05:02:17;;;;;;;5.00;2.10;;;;;;;14.03;66.89;100412.38;5057384;28;20194;-84
2023/01/02 05:04:44;;;;;;;8.87;2.60;;;;;;;14.03;67.17;100402.53;5053704;28;20212;-87
2023/01/02 05:07:12;;;;;;;8.70;2.30;;;;;;;14.06;66.93;100402.28;5049963;28;20744;-84
2023/01/02 05:09:38;;;;;;;7.10;2.20;;;;;;;14.06;66.73;100398.75;5054096;28;20228;-87
2023/01/02 05:12:05;;;;;;;6.97;2.10;;;;;;;14.05;66.67;100400.59;5056198;28;20217;-85
2023/01/02 05:14:31;;;;;;;5.93;2.30;;;;;;;14.06;67.03;100394.25;5057948;28;20565;-85
2023/01/02 05:16:58;;;;;;;5.50;2.63;;;;;;;14.07;66.88;100395.94;5054557;28;20240;-84
2023/01/02 05:19:24;;;;;;;7.87;3.07;;;;;;;14.06;66.57;100396.06;5056530;28;20201;-84
2023/01/02 05:24:36;;;;;;;5.43;2.30;;;;;;;14.06;66.39;100401.44;5053607;28;20213;-84
2023/01/02 05:27:02;;;;;;;3.80;2.23;;;;;;;14.05;66.08;100413.13;5053918;28;20221;-83
2023/01/02 05:29:29;;;;;;;6.80;2.40;;;;;;;14.05;66.58;100416.66;5055557;28;20208;-83
2023/01/02 05:31:55;;;;;;;5.90;2.20;;;;;;;14.04;66.48;100420.31;5055128;28;20221;-83
2023/01/02 05:34:22;;;;;;;10.27;2.80;;;;;;;14.05;66.32;100416.66;5049000;28;20205;-84
2023/01/02 05:36:49;;;;;;;4.93;1.80;;;;;;;14.05;65.88;100426.50;5054804;28;20225;-84
2023/01/02 05:39:15;;;;;;;4.67;2.43;;;;;;;14.03;66.04;100418.59;5055332;28;20645;-84
2023/01/02 05:41:43;;;;;;;6.13;2.17;;;;;;;14.03;66.14;100420.41;5053969;28;20216;-84
2023/01/02 05:44:10;;;;;;;7.53;2.20;;;;;;;14.02;65.97;100418.72;5042874;28;20565;-84
2023/01/02 05:46:38;;;;;;;6.87;2.27;;;;;;;14.05;65.89;100411.28;5049094;28;20226;-83
2023/01/02 05:49:05;;;;;;;5.70;2.37;;;;;;;14.05;65.62;100413.97;5051521;28;20198;-87
2023/01/02 05:51:31;;;;;;;6.07;2.40;;;;;;;14.06;65.80;100412.16;5055404;28;20249;-86
2023/01/02 05:53:58;;;;;;;8.30;2.30;;;;;;;14.06;66.12;100415.66;5053609;28;20218;-86
2023/01/02 05:56:26;;;;;;;8.57;1.90;;;;;;;14.03;66.31;100415.91;5051349;28;20213;-84
2023/01/02 05:58:54;;;;;;;11.87;2.40;;;;;;;14.06;66.03;100423.72;5052403;28;20214;-83
2023/01/02 06:01:22;;;;;;;8.30;2.10;;;;;;;14.07;65.51;100416.53;5059029;28;20206;-84
2023/01/02 06:03:50;;;;;;;7.17;2.40;;;;;;;14.06;65.53;100413.00;5048481;28;20213;-83
2023/01/02 06:06:19;;;;;;;8.47;2.77;;;;;;;14.06;66.14;100415.66;5054533;28;20663;-85
2023/01/02 06:08:45;;;;;;;4.60;1.80;;;;;;;14.08;65.73;100411.03;5052129;28;20202;-83
2023/01/02 06:11:12;;;;;;;6.50;2.13;;;;;;;14.10;65.82;100405.56;5050896;28;20754;-84
2023/01/02 06:13:39;;;;;;;7.87;2.70;;;;;;;14.14;65.64;100410.56;5048163;28;20202;-84
2023/01/02 06:16:09;;;;;;;4.93;1.70;;;;;;;14.17;65.78;100398.72;5054380;28;20205;-84
2023/01/02 06:18:37;;;;;;;5.93;1.97;;;;;;;14.17;66.16;100406.75;5050802;28;20328;-84
2023/01/02 06:21:06;;;;;;;6.17;2.13;;;;;;;14.24;65.91;100399.91;5053511;28;20209;-85
2023/01/02 06:23:33;;;;;;;5.13;1.97;;;;;;;14.21;66.19;100419.78;5042611;28;20235;-85
2023/01/02 06:26:02;;;;;;;4.10;1.73;;;;;;;14.23;66.21;100415.16;5053543;28;20205;-83
2023/01/02 06:28:29;;;;;;;5.27;2.00;;;;;;;14.25;66.24;100434.63;5053066;28;20221;-83
2023/01/02 06:30:59;;;;;;;5.00;2.20;;;;;;;14.29;66.48;100431.69;5046822;28;20634;-84
2023/01/02 06:33:27;;;;;;;4.03;2.10;;;;;;;14.29;66.60;100437.91;5056281;28;20213;-86
2023/01/02 06:35:57;;;;;;;6.23;2.37;;;;;;;14.25;66.54;100431.94;5050392;28;20209;-86
2023/01/02 06:38:23;;;;;;;5.80;2.00;;;;;;;14.24;66.93;100429.38;5051653;28;20237;-86
2023/01/02 06:40:54;;;;;;;4.63;1.80;;;;;;;14.27;66.70;100421.09;5054167;28;20204;-85
2023/01/02 06:43:20;;;;;;;7.27;2.17;;;;;;;14.27;66.97;100423.78;5048424;28;20208;-83
2023/01/02 06:45:47;;;;;;;4.10;2.37;;;;;;;14.25;67.48;100423.06;5043218;28;20231;-83
2023/01/02 06:48:14;;;;;;;6.50;2.20;;;;;;;14.25;67.31;100429.25;5052505;28;20221;-84
2023/01/02 06:50:43;;;;;;;4.00;1.60;;;;;;;14.25;67.46;100425.72;5059630;28;20260;-84
2023/01/02 06:53:11;;;;;;;4.07;1.83;;;;;;;14.24;67.33;100421.34;5055739;28;20209;-84
2023/01/02 06:55:37;;;;;;;4.03;1.93;;;;;;;14.21;67.45;100433.16;5050606;28;20194;-84
2023/01/02 06:58:04;;;;;;;5.87;1.80;;;;;;;14.24;67.42;100416.00;5053369;28;20790;-84
2023/01/02 07:00:30;;;;;;;5.70;1.87;;;;;;;14.27;66.83;100415.75;5054101;28;20205;-84
2023/01/02 07:02:56;;;;;;;5.90;1.80;;;;;;;14.28;66.96;100435.34;5053891;28;20212;-83
2023/01/02 07:05:23;;;;;;;5.87;1.47;;;;;;;14.28;67.07;100435.34;5054758;28;20703;-83
2023/01/02 07:07:51;;;;;;;5.97;1.80;;;;;;;14.30;67.14;100438.75;5047880;28;20316;-84
2023/01/02 07:10:17;;;;;;;7.90;1.83;;;;;;;14.28;66.57;100428.16;5044759;28;20212;-83
2023/01/02 07:12:44;;;;;;;5.63;1.57;;;;;;;14.25;67.29;100433.78;5047279;28;20233;-84
2023/01/02 07:15:11;;;;;;;4.63;1.67;;;;;;;14.22;67.02;100423.31;5051927;28;20201;-87
2023/01/02 07:17:37;;;;;;;3.80;1.80;;;;;;;14.22;67.65;100429.50;5046002;28;20256;-86
2023/01/02 07:20:04;;;;;;;5.27;1.67;;;;;;;14.20;67.74;100427.94;5047993;28;20559;-85
2023/01/02 07:22:31;;;;;;;2.87;1.37;;;;;;;14.22;67.88;100442.06;5043465;28;20203;-85
2023/01/02 07:25:00;;;;;;;5.37;1.90;;;;;;;14.19;67.71;100434.25;5045951;28;20201;-85
2023/01/02 07:27:28;;;;;;;5.93;2.10;;;;;;;14.19;67.59;100431.59;5042577;28;20232;-84
2023/01/02 07:29:55;;;;;;;5.50;1.67;;;;;;;14.16;67.73;100443.41;5052234;28;20205;-84
2023/01/02 07:32:21;;;;;;;5.30;2.10;;;;;;;14.14;67.71;100441.84;5051734;28;20225;-87
2023/01/02 07:34:48;;;;;;;2.80;1.50;;;;;;;14.18;67.53;100422.69;5050436;28;20574;-84
2023/01/02 07:37:15;;;;;;;6.63;2.33;;;;;;;14.20;67.22;100427.94;5045514;28;20229;-87
2023/01/02 07:39:41;;;;;;;3.80;1.77;;;;;;;14.20;67.18;100436.81;5042927;28;20687;-84
2023/01/02 07:42:09;;;;;;;4.07;1.70;;;;;;;14.20;67.24;100430.59;5051003;28;20202;-86
2023/01/02 07:44:36;;;;;;;3.23;1.50;;;;;;;14.19;67.55;100445.81;5053452;28;20202;-83
2023/01/02 07:47:02;;;;;;;4.97;1.90;;;;;;;14.20;66.86;100436.81;5055460;28;20598;-86
2023/01/02 07:49:29;;;;;;;5.27;2.10;;;;;;;14.16;67.35;100454.09;5052586;28;20661;-83
2023/01/02 07:51:55;;;;;;;5.43;1.80;;;;;;;14.18;67.51;100452.16;5054074;28;20225;-83
2023/01/02 07:54:22;;;;;;;6.30;1.90;;;;;;;14.16;67.41;100453.25;5055650;28;20205;-83
2023/01/02 07:56:48;;;;;;;6.57;1.80;;;;;;;14.14;67.18;100453.41;5055485;28;20245;-84
2023/01/02 07:59:16;;;;;;;5.23;1.70;;;;;;;14.11;67.19;100461.69;5054894;28;20268;-85
2023/01/02 08:01:43;;;;;;;9.13;2.47;;;;;;;14.11;67.59;100461.69;5059440;28;20289;-85
2023/01/02 08:04:09;;;;;;;4.30;1.90;;;;;;;14.08;67.94;100453.03;5070503;28;20215;-84
2023/01/02 08:06:39;;;;;;;4.83;1.37;;;;;;;14.06;67.93;100460.34;5054723;28;20244;-83
2023/01/02 08:09:05;;;;;;;4.10;1.60;;;;;;;14.08;67.50;100463.75;5054887;28;20212;-84
2023/01/02 08:11:32;;;;;;;6.53;1.80;;;;;;;14.05;68.05;100456.81;5053450;28;20234;-86
2023/01/02 08:13:58;;;;;;;6.10;1.87;;;;;;;14.07;67.56;100472.75;5054625;28;20209;-83
2023/01/02 08:16:26;;;;;;;4.30;1.73;;;;;;;14.03;67.89;100466.78;5055014;28;20197;-83
2023/01/02 08:18:54;;;;;;;4.70;2.00;;;;;;;14.03;67.86;100487.38;5054766;28;20205;-85
2023/01/02 08:21:21;;;;;;;4.83;1.90;;;;;;;14.01;67.94;100467.88;5051916;28;20259;-83
2023/01/02 08:23:48;;;;;;;3.30;1.70;;;;;;;13.99;68.15;100480.53;5057523;28;20712;-82
2023/01/02 08:26:14;;;;;;;4.30;1.50;;;;;;;14.00;68.17;100467.03;5055698;28;20648;-82
2023/01/02 08:28:41;;;;;;;3.37;1.80;;;;;;;13.99;68.69;100477.88;5053185;28;20209;-84
2023/01/02 08:31:10;;;;;;;6.07;1.93;;;;;;;13.96;68.58;100468.28;5058788;28;20205;-83
2023/01/02 08:33:38;;;;;;;4.30;1.93;;;;;;;13.96;68.50;100472.78;5055973;28;20201;-83
2023/01/02 08:36:04;;;;;;;3.67;1.70;;;;;;;13.96;68.91;100476.31;5059125;28;20656;-82
2023/01/02 08:38:31;;;;;;;5.73;2.17;;;;;;;13.92;68.65;100474.84;5058859;28;20221;-85
2023/01/02 08:40:57;;;;;;;5.73;1.63;;;;;;;13.92;68.49;100466.81;5057048;28;20211;-83
2023/01/02 08:43:24;;;;;;;3.00;1.60;;;;;;;13.94;68.45;100477.41;5048364;28;20221;-84
2023/01/02 08:45:50;;;;;;;3.13;1.50;;;;;;;13.94;68.18;100472.91;5042700;28;20198;-83
2023/01/02 08:48:17;;;;;;;3.30;1.90;;;;;;;13.95;68.19;100485.31;5049442;28;20881;-83
2023/01/02 08:50:45;;;;;;;4.17;1.70;;;;;;;13.95;67.72;100473.75;5051527;28;20201;-82
2023/01/02 08:53:11;;;;;;;5.17;1.70;;;;;;;13.96;67.57;100475.47;5051381;28;20240;-83
2023/01/02 08:55:38;;;;;;;3.70;1.60;;;;;;;13.97;67.92;100483.38;5054011;28;20209;-83
2023/01/02 08:58:04;;;;;;;3.30;1.47;;;;;;;13.97;67.80;100487.88;5051438;28;20248;-83
2023/01/02 09:00:31;;;;;;;3.80;1.40;;;;;;;13.96;67.55;100481.66;5053396;28;20213;-83
2023/01/02 09:02:57;;;;;;;3.47;1.57;;;;;;;13.97;67.06;100504.78;5050594;28;20202;-84
2023/01/02 09:05:23;;;;;;;5.00;1.73;;;;;;;14.00;67.32;100498.31;5053649;28;20238;-84
2023/01/02 09:07:51;;;;;;;3.87;1.13;;;;;;;14.00;67.25;100498.31;5052388;28;20233;-84
2023/01/02 09:10:18;;;;;;;3.43;1.53;;;;;;;13.99;67.12;100491.25;5055301;28;20202;-84
2023/01/02 09:12:44;;;;;;;3.50;2.10;;;;;;;14.05;66.79;100485.41;5054723;28;20225;-84
2023/01/02 09:15:11;;;;;;;4.23;1.53;;;;;;;14.04;66.69;100491.75;5055399;28;20202;-84
2023/01/02 09:17:37;;;;;;;5.47;1.40;;;;;;;14.06;66.66;100495.16;5050375;28;20704;-85
2023/01/02 09:20:05;;;;;;;2.73;1.53;;;;;;;14.07;66.88;100491.50;5053153;28;20599;-84
2023/01/02 09:22:31;;;;;;;3.80;1.60;;;;;;;14.09;66.95;100494.91;5053683;28;20206;-84
2023/01/02 09:24:59;;;;;;;7.07;1.70;;;;;;;14.06;66.28;100498.69;5057264;28;20654;-84
2023/01/02 09:27:26;;;;;;;5.73;1.50;;;;;;;14.12;66.40;100508.91;5050535;28;20220;-83
2023/01/02 09:29:53;;;;;;;4.17;1.60;;;;;;;14.15;66.01;100511.31;5054263;28;20210;-83
2023/01/02 09:32:19;;;;;;;5.50;1.60;;;;;;;14.17;66.18;100513.88;5051946;28;20325;-85
2023/01/02 09:34:49;;;;;;;3.80;1.57;;;;;;;14.20;66.04;100516.31;5042903;28;20214;-84
2023/01/02 09:37:16;;;;;;;4.70;1.47;;;;;;;14.23;66.24;100522.28;5044103;28;21805;-83
2023/01/02 09:39:42;;;;;;;3.50;1.47;;;;;;;14.27;65.91;100535.44;5046822;28;20236;-84
2023/01/02 09:42:14;;;;;;;4.97;1.37;;;;;;;14.30;65.90;100527.16;5049822;28;20206;-84
2023/01/02 09:44:45;;;;;;;3.30;1.73;;;;;;;14.28;66.21;100529.97;5049208;28;20616;-84
2023/01/02 09:47:15;;;;;;;3.03;1.30;;;;;;;14.33;65.92;100533.09;5046179;28;20220;-83
2023/01/02 09:49:45;;;;;;;4.00;1.70;;;;;;;14.36;65.92;100526.66;5039944;28;20202;-84
2023/01/02 09:52:15;;;;;;;4.27;1.80;;;;;;;14.31;65.97;100529.72;5046702;28;20213;-84
2023/01/02 09:54:42;;;;;;;3.17;1.47;;;;;;;14.34;65.68;100533.94;5048184;28;20206;-83
2023/01/02 09:57:42;;;;;;;3.87;1.60;;;;;;;14.36;65.50;100519.47;5055343;28;20221;-83
2023/01/02 10:00:23;;;;;;;4.67;1.60;;;;;;;14.35;65.96;100530.28;5006951;28;20236;-83
2023/01/02 10:03:01;;;;;;;5.73;1.60;;;;;;;14.35;65.92;100523.13;5049717;28;20197;-83
2023/01/02 10:05:53;;;;;;;7.60;1.80;;;;;;;14.41;65.63;100525.34;5053128;28;20213;-83
2023/01/02 10:08:31;;;;;;;4.40;1.50;;;;;;;14.39;65.91;100527.25;5047589;28;20218;-83
2023/01/02 10:11:09;;;;;;;4.60;1.83;;;;;;;14.44;65.41;100532.28;5043619;28;20194;-84
2023/01/02 10:13:45;;;;;;;4.37;1.30;;;;;;;14.44;65.26;100545.69;5047931;28;20219;-83
2023/01/02 10:16:18;;;;;;;4.10;1.50;;;;;;;14.45;65.55;100531.31;5045244;28;20201;-82
2023/01/02 10:18:49;;;;;;;4.97;1.87;;;;;;;14.43;65.48;100552.00;5051871;28;20209;-82
2023/01/02 10:21:21;;;;;;;3.63;1.33;;;;;;;14.41;65.30;100545.91;5044023;28;20201;-84
2023/01/02 10:23:50;;;;;;;4.00;2.07;;;;;;;14.42;65.67;100534.22;5049169;28;20205;-83
2023/01/02 10:26:19;;;;;;;4.63;1.73;;;;;;;14.40;65.51;100547.75;5046258;28;20562;-83
2023/01/02 10:28:56;;;;;;;3.50;1.43;;;;;;;14.39;65.66;100548.69;5041293;28;20202;-81
2023/01/02 10:31:28;;;;;;;5.37;1.40;;;;;;;14.41;65.55;100543.25;5043722;28;20293;-82
2023/01/02 10:33:58;;;;;;;4.73;1.63;;;;;;;14.40;65.78;100534.34;5049143;28;20230;-82
2023/01/02 10:36:26;;;;;;;3.00;1.43;;;;;;;14.35;65.70;100552.59;5047731;28;20197;-82
2023/01/02 10:38:57;;;;;;;6.00;1.80;;;;;;;14.33;66.09;100554.53;5046916;28;20568;-82
2023/01/02 10:41:26;;;;;;;5.40;1.77;;;;;;;14.29;67.07;100560.28;5043931;28;20284;-82
2023/01/02 10:44:02;;;;;;;4.80;1.67;;;;;;;14.26;67.21;100577.44;5043740;28;20202;-81
2023/01/02 10:46:32;;;;;;;3.70;1.30;;;;;;;14.25;68.78;100573.06;5041528;28;20209;-81
2023/01/02 10:48:58;;;;;;;3.63;1.53;;;;;;;14.21;69.54;100582.31;5045828;28;20220;-82
2023/01/02 10:51:25;;;;;;;4.60;1.90;;;;;;;14.15;71.85;100605.06;5047539;28;20206;-82
2023/01/02 10:54:03;;;;;;;5.57;2.03;;;;;;;14.05;73.24;100585.34;5046333;28;20680;-82
2023/01/02 10:56:34;;;;;;;4.37;1.63;;;;;;;13.92;73.35;100592.66;5044015;28;20224;-82
2023/01/02 10:59:03;;;;;;;2.93;1.10;;;;;;;13.79;74.68;100602.63;5045397;28;20272;-81
2023/01/02 11:01:30;;;;;;;3.67;1.50;;;;;;;13.67;75.13;100599.03;5040664;28;20208;-82
2023/01/02 11:04:11;;;;;;;5.43;1.60;;;;;;;13.58;76.00;100602.44;5042876;28;20204;-82
2023/01/02 11:06:51;;;;;;;5.70;1.53;;;;;;;13.55;76.79;100600.00;5049733;28;20217;-82
2023/01/02 11:09:23;;;;;;;2.87;1.43;;;;;;;13.46;78.28;100600.69;5044418;28;20197;-83
2023/01/02 11:11:55;;;;;;;4.53;1.50;;;;;;;13.41;78.30;100606.41;5044173;28;20641;-82
2023/01/02 11:14:27;;;;;;;2.33;1.07;;;;;;;13.36;78.43;100613.06;5053590;28;20202;-82
2023/01/02 11:17:02;;;;;;;3.73;1.10;;;;;;;13.32;78.22;100601.72;5044396;28;20230;-81
2023/01/02 11:19:30;;;;;;;2.73;1.10;;;;;;;13.28;78.52;100615.44;5048840;28;20870;-82
2023/01/02 11:22:00;;;;;;;2.33;1.20;;;;;;;13.24;78.50;100622.00;5047654;28;20202;-82
2023/01/02 11:24:27;;;;;;;3.53;1.30;;;;;;;13.22;78.66;100624.81;5047413;28;20202;-82
2023/01/02 11:26:54;;;;;;;1.63;0.90;;;;;;;13.19;78.92;100627.69;5052319;28;20225;-81
2023/01/02 11:29:30;;;;;;;3.63;1.27;;;;;;;13.15;78.53;100632.41;5046558;28;20208;-81
2023/01/02 11:32:00;;;;;;;2.93;1.20;;;;;;;13.13;78.69;100630.78;5045450;28;20557;-81
2023/01/02 11:34:33;;;;;;;2.50;0.87;;;;;;;13.13;78.95;100633.47;5045852;28;20985;-82
2023/01/02 11:37:08;;;;;;;3.50;1.07;;;;;;;13.11;79.37;100622.03;5045820;28;20236;-82